Terminal Aerodrome Forecast
Issued by NWS

Home | Current Version | Previous Version | Text Only | Print | Product List | Glossary On
Versions: 1 2 3 4 5 6 7 8 9 10 11 12 13 14 15 16 17
000
FTUS44 KJAN 220535
TAFGTR
TAF
KGTR 220535Z 2206/2306 15009KT P6SM OVC200
     FM221700 16014G22KT P6SM VCSH SCT040 OVC100
     FM221900 17020G25KT 2SM TSRA BR SCT025 BKN035CB OVC050
     FM222200 20012KT 4SM RA BR BKN025 OVC040
     FM230500 32006KT 6SM -RA BKN015 OVC025=

USA.gov is the U.S. government's official web portal to all federal, state and local government web resources and services.